Main page
METAR-TAF:

METAR-TAF

Airports :

Hazleton Regional Airport

Hazleton, Pennsylvania, United States

latitude: 40-59-12N, longitude: 075-59-42W, elevation: 1604 ft

Current weather observation

The report was made 7 minutes ago, at 03:15 UTC
Calm wind
Temperature 43°F
Humidity 45%
Pressure 29.94 in. Hg
Visibility: 10 miles
Scattered clouds at a height of 8500 ft
Overcast at a height of 12000 ft

METAR: KHZL 250315Z AUTO 00000KT 10SM SCT085 OVC120 06/M05 A2994 RMK AO2

Time: 22:22 (03:22 UTC)


TAF: missing

Weather observations and forecasts of more than 4000 airports (METAR and TAF reports).

The available stations are represented by yellow and red dots on the map.

Hover mouse over dot to see the name of the station.

Then click to see weather observations and forecasts.

To change the map : click on the green buttons with a black cross to zoom in, on the green button with a dash to zoom out, or on the green arrows for adjacent maps.


METAR-TAF: